Accueil
METAR-TAF:

METAR-TAF

Aéroports :

Dübendorf, Suisse

latitude: 47-23-55N, longitude: 8-38-53E, altitude: 448 m

Observation

Le bulletin a été fait il y a 22 minutes, à 06:50 UTC
Vent 4 kt de nord-est, variant entre nord et est/nord-est
Température 5°C
Humidité 93%
Pression 1026 hPa
Visibilité: 7000 m
Ciel couvert à une hauteur de 800 ft

METAR: LSMD 160650Z 04004KT 010V070 7000 OVC008 05/04 Q1026 RMK GRN

Heure: 08:12 (07:12 UTC)


TAF: absent

Observations et prévisions météorologiques de plus de 4000 aéroports (messages METAR et TAF).

Les stations disponibles sont représentées par des disques jaunes et rouges sur la carte.

Passer la souris dessus pour voir le nom de la station.

Cliquer dessus pour voir les observations et prévisions météorologiques.

Pour changer de carte: cliquez sur les boutons verts avec une croix noire pour zoomer, sur le bouton vert avec un tiret pour effectuer un zoom arrière, ou sur les flèches vertes pour les cartes adjacentes.


METAR-TAF: